createdAt,value
2018-03-17T09:08:06.003Z,1.73
2018-03-17T09:10:32.715Z,1.20
2018-03-17T09:12:59.422Z,1.60
2018-03-17T09:15:26.148Z,1.40
2018-03-17T09:17:52.847Z,1.40
2018-03-17T09:20:19.542Z,1.10
2018-03-17T09:22:46.273Z,1.00
2018-03-17T09:25:12.979Z,1.00
2018-03-17T09:27:39.701Z,1.10
2018-03-17T09:30:06.438Z,1.40
2018-03-17T09:32:33.146Z,1.40
2018-03-17T09:34:59.841Z,1.20
2018-03-17T09:37:26.565Z,1.60
2018-03-17T09:39:53.270Z,1.23
2018-03-17T09:42:20.925Z,1.00
2018-03-17T09:44:47.752Z,1.20
2018-03-17T09:47:14.461Z,1.10
2018-03-17T09:49:41.169Z,0.83
2018-03-17T09:52:07.913Z,0.87
2018-03-17T09:54:34.629Z,1.00
2018-03-17T09:57:01.370Z,1.30
2018-03-17T09:59:28.132Z,1.30
2018-03-17T10:01:54.832Z,1.00
2018-03-17T10:04:21.539Z,1.00
2018-03-17T10:06:48.262Z,0.90
2018-03-17T10:09:14.981Z,0.93
2018-03-17T10:11:41.677Z,1.00
2018-03-17T10:14:08.417Z,1.00
2018-03-17T10:16:35.133Z,0.73
2018-03-17T10:19:01.882Z,0.63
2018-03-17T10:21:28.622Z,1.00
2018-03-17T10:23:55.337Z,1.00
2018-03-17T10:26:22.063Z,0.80
2018-03-17T10:28:48.788Z,1.00
2018-03-17T10:31:15.489Z,1.00
2018-03-17T10:33:42.209Z,0.80
2018-03-17T10:36:08.938Z,0.93
2018-03-17T10:38:35.649Z,0.90
2018-03-17T10:41:02.393Z,0.90
2018-03-17T10:43:29.126Z,0.80
2018-03-17T10:45:55.833Z,0.90
2018-03-17T10:48:22.529Z,0.80
2018-03-17T10:50:49.262Z,1.10
2018-03-17T10:53:15.965Z,0.77
2018-03-17T10:55:42.669Z,0.90
2018-03-17T10:58:09.410Z,0.90
2018-03-17T11:00:41.945Z,0.80
2018-03-17T11:03:08.723Z,0.60
2018-03-17T11:05:35.449Z,0.90
2018-03-17T11:08:02.173Z,0.70
2018-03-17T11:10:28.874Z,0.63
2018-03-17T11:12:55.593Z,0.80
2018-03-17T11:15:22.293Z,0.90
2018-03-17T11:17:48.991Z,0.83
2018-03-17T11:20:15.755Z,0.80
2018-03-17T11:22:42.454Z,0.90
2018-03-17T11:25:09.153Z,1.10
2018-03-17T11:27:35.885Z,1.27
2018-03-17T11:30:02.590Z,0.90
2018-03-17T11:32:29.301Z,0.80
2018-03-17T11:34:56.053Z,0.80
2018-03-17T11:37:22.770Z,1.07
2018-03-17T11:39:49.473Z,1.00
2018-03-17T11:42:16.193Z,0.90
2018-03-17T11:44:42.909Z,1.00
2018-03-17T11:47:09.832Z,1.00
2018-03-17T11:49:36.561Z,1.07
2018-03-17T11:52:03.286Z,1.10
2018-03-17T11:54:29.981Z,1.07
2018-03-17T11:56:56.719Z,1.97
2018-03-17T11:59:23.417Z,1.10
2018-03-17T12:01:50.125Z,1.20
2018-03-17T12:04:16.849Z,1.40
2018-03-17T12:06:43.549Z,1.10
2018-03-17T12:09:10.245Z,2.60
2018-03-17T12:11:36.969Z,3.27
2018-03-17T12:14:03.696Z,1.10
2018-03-17T12:16:30.389Z,1.93
2018-03-17T12:18:57.133Z,1.03
2018-03-17T12:21:23.826Z,1.10
2018-03-17T12:23:50.529Z,1.00
2018-03-17T12:26:17.249Z,1.10
2018-03-17T12:28:43.941Z,1.60
2018-03-17T12:31:10.852Z,0.97
2018-03-17T12:33:37.573Z,1.20
2018-03-17T12:36:04.269Z,1.73
2018-03-17T12:38:30.965Z,1.20
2018-03-17T12:40:57.705Z,1.37
2018-03-17T12:43:24.405Z,1.10
2018-03-17T12:45:51.097Z,1.10
2018-03-17T12:48:17.825Z,1.10
2018-03-17T12:50:44.533Z,1.10
2018-03-17T12:53:11.241Z,1.40
2018-03-17T12:55:38.070Z,1.23
2018-03-17T12:58:04.778Z,1.20
2018-03-17T13:00:31.729Z,1.20
2018-03-17T13:02:58.459Z,0.90
2018-03-17T13:05:25.162Z,1.10
2018-03-17T13:07:51.854Z,1.40
2018-03-17T13:10:18.585Z,1.13
2018-03-17T13:12:45.292Z,0.90
2018-03-17T13:15:12.017Z,1.40
2018-03-17T13:17:38.752Z,0.90
2018-03-17T13:20:05.456Z,1.00
2018-03-17T13:22:37.961Z,1.10
2018-03-17T13:25:04.689Z,1.30
2018-03-17T13:27:37.299Z,1.00
2018-03-17T13:30:04.089Z,1.17
2018-03-17T13:32:36.738Z,1.10
2018-03-17T13:35:03.482Z,0.90
2018-03-17T13:37:35.980Z,0.90
2018-03-17T13:40:02.704Z,0.80
2018-03-17T13:42:29.421Z,0.90
2018-03-17T13:44:56.155Z,1.10
2018-03-17T13:47:22.853Z,1.20
2018-03-17T13:49:49.555Z,0.93
2018-03-17T13:52:16.278Z,1.10
2018-03-17T13:54:42.993Z,1.00
2018-03-17T13:57:09.704Z,1.00
2018-03-17T13:59:36.429Z,1.03
2018-03-17T14:02:03.134Z,1.30
2018-03-17T14:04:29.838Z,1.20
2018-03-17T14:06:56.565Z,1.10
2018-03-17T14:09:23.265Z,0.90
2018-03-17T14:11:49.965Z,1.00
2018-03-17T14:14:16.703Z,0.90
2018-03-17T14:16:43.408Z,1.03
2018-03-17T14:19:10.113Z,1.00
2018-03-17T14:21:36.848Z,0.90
2018-03-17T14:24:03.549Z,0.90
2018-03-17T14:26:30.241Z,1.00
2018-03-17T14:28:56.975Z,1.07
2018-03-17T14:31:23.682Z,1.00
2018-03-17T14:33:50.385Z,1.53
2018-03-17T14:36:17.127Z,1.20
2018-03-17T14:38:43.831Z,1.30
2018-03-17T14:41:10.540Z,1.40
2018-03-17T14:43:37.276Z,1.60
2018-03-17T14:46:03.998Z,1.30
2018-03-17T14:48:30.706Z,1.40
2018-03-17T14:50:57.433Z,1.20
2018-03-17T14:53:24.136Z,1.13
2018-03-17T14:55:50.841Z,1.20
2018-03-17T14:58:17.582Z,1.00
2018-03-17T15:00:44.277Z,1.30
2018-03-17T15:03:10.985Z,1.23
2018-03-17T15:05:37.721Z,1.13
2018-03-17T15:08:04.466Z,1.20
2018-03-17T15:10:31.161Z,1.23
2018-03-17T15:12:57.885Z,1.10
2018-03-17T15:15:24.618Z,0.90
2018-03-17T15:17:51.310Z,1.13
2018-03-17T15:20:18.049Z,1.30
2018-03-17T15:22:44.749Z,1.00
2018-03-17T15:25:11.463Z,1.13
2018-03-17T15:27:38.198Z,1.10
2018-03-17T15:30:04.951Z,1.40
2018-03-17T15:32:31.645Z,1.23
2018-03-17T15:34:58.386Z,0.93
2018-03-17T15:37:25.085Z,1.10
2018-03-17T15:39:51.789Z,1.07
2018-03-17T15:42:18.529Z,1.17
2018-03-17T15:44:45.233Z,1.10
2018-03-17T15:47:11.942Z,1.23
2018-03-17T15:49:38.669Z,1.20
2018-03-17T15:52:05.381Z,1.00
2018-03-17T15:54:32.091Z,1.33
2018-03-17T15:56:58.821Z,1.50
2018-03-17T15:59:25.563Z,1.17
2018-03-17T16:01:52.256Z,1.10
2018-03-17T16:04:18.989Z,1.17
2018-03-17T16:06:45.689Z,1.00
2018-03-17T16:09:12.407Z,0.93
2018-03-17T16:11:39.464Z,1.10
2018-03-17T16:14:06.191Z,1.17
2018-03-17T16:16:32.897Z,1.20
2018-03-17T16:18:59.629Z,1.10
2018-03-17T16:21:26.337Z,1.20
2018-03-17T16:23:53.041Z,1.20
2018-03-17T16:26:19.778Z,1.40
2018-03-17T16:28:46.499Z,2.50
2018-03-17T16:31:13.197Z,1.50
2018-03-17T16:33:39.976Z,1.60
2018-03-17T16:36:06.684Z,1.70
2018-03-17T16:38:33.397Z,1.83
2018-03-17T16:41:00.198Z,1.30
2018-03-17T16:43:26.960Z,1.20
2018-03-17T16:45:53.655Z,1.20
2018-03-17T16:48:20.560Z,1.00
2018-03-17T16:50:47.277Z,1.30
2018-03-17T16:53:13.977Z,1.20
2018-03-17T16:55:40.713Z,1.00
2018-03-17T16:58:07.429Z,1.20
2018-03-17T17:00:34.205Z,1.10
2018-03-17T17:03:00.929Z,1.40
2018-03-17T17:05:27.660Z,1.30
2018-03-17T17:07:54.366Z,1.70
2018-03-17T17:10:21.093Z,1.83
2018-03-17T17:12:47.801Z,2.00
2018-03-17T17:15:14.511Z,1.73
2018-03-17T17:17:41.340Z,1.90
2018-03-17T17:20:08.053Z,1.93
2018-03-17T17:22:34.792Z,2.23
2018-03-17T17:25:01.543Z,3.30
2018-03-17T17:27:28.256Z,2.27
2018-03-17T17:29:54.971Z,2.47
2018-03-17T17:32:21.710Z,1.47
2018-03-17T17:34:48.474Z,1.70
2018-03-17T17:37:15.202Z,1.83
2018-03-17T17:39:41.958Z,1.80
2018-03-17T17:42:08.661Z,1.57
2018-03-17T17:44:35.357Z,2.00
2018-03-17T17:47:02.091Z,2.10
2018-03-17T17:49:28.797Z,1.73
2018-03-17T17:51:55.509Z,2.00
2018-03-17T17:54:22.261Z,2.90
2018-03-17T17:56:48.953Z,2.67
2018-03-17T17:59:15.657Z,2.20
2018-03-17T18:01:42.396Z,1.83
2018-03-17T18:04:09.120Z,1.37
2018-03-17T18:06:35.817Z,2.43
2018-03-17T18:09:02.553Z,2.67
2018-03-17T18:11:29.249Z,2.53
2018-03-17T18:13:55.955Z,2.10
2018-03-17T18:16:22.701Z,1.70
2018-03-17T18:18:49.405Z,2.50
2018-03-17T18:21:16.125Z,2.33
2018-03-17T18:23:42.861Z,3.60
2018-03-17T18:26:09.569Z,1.70
2018-03-17T18:28:36.282Z,1.70
2018-03-17T18:31:03.016Z,1.93
2018-03-17T18:33:29.717Z,1.90
2018-03-17T18:35:56.510Z,2.43
2018-03-17T18:38:23.273Z,2.27
2018-03-17T18:40:49.973Z,1.33
2018-03-17T18:43:16.669Z,1.30
2018-03-17T18:45:43.389Z,1.17
2018-03-17T18:48:10.105Z,1.27
2018-03-17T18:50:36.815Z,1.30
2018-03-17T18:53:03.617Z,1.17
2018-03-17T18:55:30.337Z,1.20
2018-03-17T18:57:57.060Z,1.40
2018-03-17T19:00:23.794Z,1.40
2018-03-17T19:02:50.509Z,1.90
2018-03-17T19:05:17.271Z,1.53
2018-03-17T19:07:44.228Z,1.40
2018-03-17T19:10:10.988Z,1.60
2018-03-17T19:12:37.694Z,1.10
2018-03-17T19:15:04.494Z,1.57
2018-03-17T19:17:31.231Z,1.40
2018-03-17T19:19:57.951Z,1.30
2018-03-17T19:22:24.728Z,1.50
2018-03-17T19:24:51.478Z,1.27
2018-03-17T19:27:18.201Z,1.50
2018-03-17T19:29:44.996Z,1.77
2018-03-17T19:32:11.717Z,2.10
2018-03-17T19:34:38.419Z,2.43
2018-03-17T19:37:05.159Z,2.43
2018-03-17T19:39:31.877Z,2.60
2018-03-17T19:41:58.580Z,2.30
2018-03-17T19:44:25.404Z,2.40
2018-03-17T19:46:52.046Z,2.90
2018-03-17T19:49:18.766Z,2.60
2018-03-17T19:51:45.515Z,2.10
2018-03-17T19:54:12.245Z,2.60
2018-03-17T19:56:38.947Z,2.40
2018-03-17T19:59:05.690Z,2.80
2018-03-17T20:01:32.469Z,3.87
2018-03-17T20:03:59.147Z,2.60
2018-03-17T20:06:25.890Z,1.97
2018-03-17T20:08:52.605Z,1.80
2018-03-17T20:11:19.317Z,2.20
2018-03-17T20:13:46.055Z,1.90
2018-03-17T20:16:12.767Z,1.70
2018-03-17T20:18:39.503Z,1.90
2018-03-17T20:21:06.234Z,3.63
2018-03-17T20:23:32.948Z,3.70
2018-03-17T20:25:59.669Z,3.10
2018-03-17T20:28:26.427Z,2.90
2018-03-17T20:30:53.128Z,2.83
2018-03-17T20:33:19.906Z,1.60
2018-03-17T20:35:46.613Z,1.70
2018-03-17T20:38:13.333Z,1.97
2018-03-17T20:40:40.038Z,2.50
2018-03-17T20:43:06.784Z,2.93
2018-03-17T20:45:33.494Z,3.13
2018-03-17T20:48:00.225Z,2.80
2018-03-17T20:50:26.958Z,2.57
2018-03-17T20:52:53.667Z,3.17
2018-03-17T20:55:20.378Z,3.80
2018-03-17T20:57:47.110Z,3.17
2018-03-17T21:00:13.813Z,2.80
2018-03-17T21:02:40.513Z,2.57
2018-03-17T21:05:07.269Z,2.30
2018-03-17T21:07:33.978Z,1.60
2018-03-17T21:10:00.681Z,1.40
2018-03-17T21:12:27.414Z,1.33
2018-03-17T21:14:54.140Z,1.70
2018-03-17T21:17:20.850Z,1.70
2018-03-17T21:19:47.587Z,1.50
2018-03-17T21:22:14.292Z,1.30
2018-03-17T21:24:40.986Z,1.40
2018-03-17T21:27:07.725Z,1.43
2018-03-17T21:29:34.442Z,1.40
2018-03-17T21:32:01.149Z,1.30
2018-03-17T21:34:27.900Z,1.10
2018-03-17T21:36:54.609Z,1.27
2018-03-17T21:39:21.327Z,1.50
2018-03-17T21:41:48.059Z,1.00
2018-03-17T21:44:14.765Z,1.33
2018-03-17T21:46:41.482Z,1.50
2018-03-17T21:49:08.218Z,1.37
2018-03-17T21:51:34.919Z,1.53
2018-03-17T21:54:01.622Z,1.50
2018-03-17T21:56:28.368Z,1.30
2018-03-17T21:58:55.206Z,1.30
2018-03-17T22:01:21.924Z,1.40
2018-03-17T22:03:48.649Z,1.30
2018-03-17T22:06:15.351Z,1.20
2018-03-17T22:08:42.058Z,1.10
2018-03-17T22:11:08.815Z,1.40
2018-03-17T22:13:35.541Z,1.20
2018-03-17T22:16:02.254Z,1.30
2018-03-17T22:18:28.977Z,1.30
2018-03-17T22:20:55.706Z,1.20
2018-03-17T22:23:22.401Z,1.10
2018-03-17T22:25:49.131Z,1.10
2018-03-17T22:28:15.837Z,1.37
2018-03-17T22:30:42.545Z,1.00
2018-03-17T22:33:09.285Z,1.00
2018-03-17T22:35:35.998Z,1.37
2018-03-17T22:38:02.706Z,0.90
2018-03-17T22:40:29.434Z,0.87
2018-03-17T22:42:56.157Z,1.27
2018-03-17T22:45:22.892Z,1.10
2018-03-17T22:47:49.625Z,1.00
2018-03-17T22:50:16.328Z,1.17
2018-03-17T22:52:43.055Z,0.97
2018-03-17T22:55:09.789Z,1.20
2018-03-17T22:57:36.496Z,1.10
2018-03-17T23:00:03.222Z,1.03
2018-03-17T23:02:29.953Z,1.17
2018-03-17T23:04:56.655Z,1.00
2018-03-17T23:07:23.382Z,1.00
2018-03-17T23:09:50.125Z,1.10
2018-03-17T23:12:16.863Z,0.90
2018-03-17T23:14:43.577Z,1.00
2018-03-17T23:17:10.352Z,1.00
2018-03-17T23:19:37.079Z,1.10
2018-03-17T23:22:03.772Z,0.90
2018-03-17T23:24:30.497Z,1.10
2018-03-17T23:26:57.206Z,1.10
2018-03-17T23:29:23.945Z,1.20
2018-03-17T23:31:50.683Z,1.00
2018-03-17T23:34:17.395Z,1.00
2018-03-17T23:36:44.141Z,1.07
2018-03-17T23:39:10.873Z,1.17
2018-03-17T23:41:37.630Z,1.20
2018-03-17T23:44:04.360Z,1.00
2018-03-17T23:46:31.102Z,1.20
2018-03-17T23:48:57.823Z,1.10
2018-03-17T23:51:24.533Z,1.03
2018-03-17T23:53:51.270Z,1.00
2018-03-17T23:56:17.969Z,0.83
2018-03-17T23:58:44.685Z,1.10
